Time;durP1;ratioP1;P1;durP2;ratioP2;P2;SDS_P1;SDS_P2;PMS_P1;PMS_P2;Temp;Humidity;BMP_temperature;BMP_pressure;BME280_temperature;BME280_humidity;BME280_pressure;Samples;Min_cycle;Max_cycle;Signal;HPM_P1;HPM_P2
2023/05/01 00:01:07;;;;;;;22.50;11.70;;;;;;;2.14;65.78;97702.04;108784;1252;95775;-73
2023/05/01 00:03:33;;;;;;;26.70;13.90;;;;;;;2.11;65.89;97704.10;108501;1252;96514;-72
2023/05/01 00:06:02;;;;;;;26.40;13.30;;;;;;;2.07;65.97;97703.82;108784;1254;101242;-73
2023/05/01 00:08:30;;;;;;;24.50;13.90;;;;;;;2.05;66.07;97702.27;108695;1253;100275;-73
2023/05/01 00:10:57;;;;;;;25.30;14.30;;;;;;;2.02;66.02;97700.41;108769;1253;95859;-73
2023/05/01 00:13:23;;;;;;;27.10;13.10;;;;;;;1.99;66.00;97699.09;108807;1252;95681;-72
2023/05/01 00:15:50;;;;;;;26.90;14.00;;;;;;;1.99;66.10;97697.85;108425;1253;96324;-73
2023/05/01 00:18:17;;;;;;;25.10;13.50;;;;;;;2.00;66.24;97700.32;108811;1253;95613;-73
2023/05/01 00:20:44;;;;;;;20.20;12.90;;;;;;;1.99;66.36;97702.84;108807;1253;95943;-73
2023/05/01 00:23:11;;;;;;;22.50;13.20;;;;;;;1.96;66.34;97704.37;108799;1253;96016;-73
2023/05/01 00:25:38;;;;;;;24.30;13.10;;;;;;;1.90;66.32;97707.87;108790;1252;95756;-74
2023/05/01 00:28:05;;;;;;;23.30;13.50;;;;;;;1.85;66.44;97706.57;108779;1253;96041;-72
2023/05/01 00:30:32;;;;;;;23.20;12.60;;;;;;;1.80;66.56;97707.36;108779;1252;95945;-75
2023/05/01 00:33:00;;;;;;;22.10;12.10;;;;;;;1.79;66.66;97709.23;108558;1253;95956;-72
2023/05/01 00:35:27;;;;;;;19.90;12.30;;;;;;;1.80;66.75;97713.58;108832;1252;96023;-73
2023/05/01 00:37:54;;;;;;;18.20;12.00;;;;;;;1.79;66.87;97709.94;108789;1253;95575;-73
2023/05/01 00:40:21;;;;;;;19.50;12.00;;;;;;;1.77;66.77;97710.80;108768;1253;95850;-73
2023/05/01 00:42:48;;;;;;;19.60;12.20;;;;;;;1.75;66.83;97707.34;108768;1253;95614;-73
2023/05/01 00:45:14;;;;;;;19.20;11.30;;;;;;;1.71;66.85;97708.79;108825;1252;95976;-72
2023/05/01 00:47:41;;;;;;;22.40;12.00;;;;;;;1.66;66.99;97709.08;108827;1252;103549;-73
2023/05/01 00:50:09;;;;;;;20.90;11.10;;;;;;;1.65;67.00;97709.92;108761;1252;96000;-73
2023/05/01 00:52:36;;;;;;;21.50;12.00;;;;;;;1.63;67.12;97708.52;108749;1253;95614;-73
2023/05/01 00:55:04;;;;;;;17.60;10.80;;;;;;;1.62;67.12;97716.06;108741;1253;95671;-73
2023/05/01 00:57:32;;;;;;;19.90;11.80;;;;;;;1.61;67.13;97718.75;108829;1252;95665;-73
2023/05/01 00:59:58;;;;;;;18.90;10.90;;;;;;;1.60;67.13;97715.84;108807;1253;97095;-73
2023/05/01 01:02:26;;;;;;;16.60;10.00;;;;;;;1.59;67.24;97714.72;108777;1253;97030;-73
2023/05/01 01:04:53;;;;;;;17.70;10.20;;;;;;;1.57;67.36;97714.02;108750;1252;96028;-73
2023/05/01 01:07:35;;;;;;;17.20;9.70;;;;;;;1.57;67.32;97718.48;108782;1253;95654;-73
2023/05/01 01:10:05;;;;;;;;;;;;;;;1.58;67.24;97719.13;108404;1252;95804;-73
2023/05/01 01:13:08;;;;;;;17.00;9.30;;;;;;;1.54;67.38;97718.13;108796;1253;103235;-73
2023/05/01 01:16:03;;;;;;;18.20;10.30;;;;;;;1.48;67.36;97714.26;108758;1253;101334;-75
2023/05/01 01:18:42;;;;;;;21.30;11.40;;;;;;;1.42;67.57;97713.56;108716;1252;100202;-72
2023/05/01 01:21:14;;;;;;;18.30;10.70;;;;;;;1.38;67.59;97711.67;108768;1253;95864;-73
2023/05/01 01:23:53;;;;;;;;;;;;;;;1.35;67.66;97709.65;108758;1253;96611;-73
2023/05/01 01:26:28;;;;;;;22.80;13.10;;;;;;;1.29;67.63;97714.14;108736;1252;103622;-75
2023/05/01 01:29:10;;;;;;;21.80;11.90;;;;;;;1.28;67.61;97714.27;108766;1253;101515;-72
2023/05/01 01:31:56;;;;;;;20.70;11.50;;;;;;;1.28;67.69;97714.93;108760;1252;99789;-73
2023/05/01 01:34:32;;;;;;;19.00;11.20;;;;;;;1.28;67.66;97715.49;108725;1252;95870;-73
2023/05/01 01:37:16;;;;;;;18.20;11.80;;;;;;;1.26;67.81;97716.67;108762;1252;97053;-75
2023/05/01 01:39:55;;;;;;;22.20;11.80;;;;;;;1.22;67.87;97718.38;108787;1252;103506;-73
2023/05/01 01:42:38;;;;;;;18.10;11.60;;;;;;;1.18;67.83;97718.16;108771;1253;110564;-72
2023/05/01 01:45:10;;;;;;;18.60;10.80;;;;;;;1.15;67.99;97722.00;108334;1252;99484;-73
2023/05/01 01:47:41;;;;;;;17.20;10.80;;;;;;;1.14;68.02;97718.08;108746;1253;95595;-74
2023/05/01 01:50:10;;;;;;;21.80;12.00;;;;;;;1.12;68.18;97715.96;108823;1252;96225;-73
2023/05/01 01:52:40;;;;;;;20.00;10.20;;;;;;;1.12;68.16;97717.39;108776;1252;104304;-73
2023/05/01 01:55:10;;;;;;;18.20;10.20;;;;;;;1.11;68.04;97714.59;108764;1253;101374;-73
2023/05/01 01:57:39;;;;;;;16.60;9.60;;;;;;;1.12;68.06;97709.04;108703;1253;99908;-73
2023/05/01 02:00:11;;;;;;;13.60;8.30;;;;;;;1.10;68.11;97708.10;108786;1252;95580;-72
2023/05/01 02:02:40;;;;;;;10.80;8.30;;;;;;;1.07;68.18;97703.57;108792;1253;96628;-73
2023/05/01 02:05:08;;;;;;;17.80;8.90;;;;;;;1.04;68.16;97701.58;108772;1253;103614;-73
2023/05/01 02:07:38;;;;;;;19.60;9.50;;;;;;;0.98;68.20;97698.96;108724;1252;101294;-75
2023/05/01 02:10:09;;;;;;;14.00;8.30;;;;;;;0.92;68.22;97698.14;108763;1252;108536;-73
2023/05/01 02:12:36;;;;;;;13.70;8.30;;;;;;;0.91;68.38;97696.11;108558;1252;95737;-73
2023/05/01 02:15:05;;;;;;;14.50;8.10;;;;;;;0.88;68.41;97692.27;108444;1252;96031;-73
2023/05/01 02:17:34;;;;;;;14.70;8.10;;;;;;;0.82;68.44;97692.70;108802;1252;103442;-73
2023/05/01 02:20:03;;;;;;;14.20;8.10;;;;;;;0.76;68.54;97693.25;108765;1253;101345;-73
2023/05/01 02:22:32;;;;;;;11.70;7.90;;;;;;;0.74;68.63;97693.75;108721;1252;99934;-74
2023/05/01 02:25:01;;;;;;;15.70;8.30;;;;;;;0.73;68.68;97693.67;108726;1253;95629;-73
2023/05/01 02:27:35;;;;;;;12.80;7.90;;;;;;;0.72;68.71;97696.42;108774;1253;96005;-73
2023/05/01 02:30:04;;;;;;;16.00;8.80;;;;;;;0.72;68.76;97691.38;108698;1253;103551;-73
2023/05/01 02:32:31;;;;;;;17.70;10.00;;;;;;;0.70;68.80;97692.77;108729;1253;101360;-74
2023/05/01 02:34:58;;;;;;;17.00;9.50;;;;;;;0.68;68.84;97694.04;108422;1252;95671;-73
2023/05/01 02:37:25;;;;;;;18.10;9.90;;;;;;;0.66;68.90;97692.23;108739;1252;95641;-73
2023/05/01 02:39:52;;;;;;;17.40;9.20;;;;;;;0.64;68.97;97687.46;108755;1253;95565;-73
2023/05/01 02:42:21;;;;;;;18.40;10.10;;;;;;;0.61;68.96;97687.57;108739;1253;95677;-73
2023/05/01 02:44:56;;;;;;;12.70;9.30;;;;;;;0.60;69.09;97687.88;108755;1252;95651;-73
2023/05/01 02:47:24;;;;;;;17.20;10.10;;;;;;;0.58;69.16;97685.75;108678;1253;100405;-73
2023/05/01 02:49:52;;;;;;;13.90;9.40;;;;;;;0.56;69.13;97679.35;108647;1253;96099;-73
2023/05/01 02:52:21;;;;;;;13.20;9.50;;;;;;;0.54;69.16;97674.40;108709;1253;96008;-73
2023/05/01 02:54:49;;;;;;;16.10;10.10;;;;;;;0.51;69.28;97669.75;108797;1253;103748;-73
2023/05/01 02:57:17;;;;;;;15.90;9.40;;;;;;;0.48;69.34;97667.77;108802;1253;96025;-73
2023/05/01 02:59:44;;;;;;;14.50;9.70;;;;;;;0.47;69.43;97664.00;108696;1253;100063;-73
2023/05/01 03:02:10;;;;;;;15.50;9.50;;;;;;;0.47;69.41;97663.42;108777;1253;95877;-73
2023/05/01 03:04:37;;;;;;;17.20;9.40;;;;;;;0.46;69.42;97666.17;108852;1253;96017;-73
2023/05/01 03:07:04;;;;;;;16.60;9.20;;;;;;;0.45;69.33;97664.52;108776;1253;95580;-75
2023/05/01 03:09:31;;;;;;;14.70;8.20;;;;;;;0.43;69.39;97661.48;108502;1254;95756;-74
2023/05/01 03:11:58;;;;;;;14.90;8.60;;;;;;;0.41;69.33;97663.23;108765;1253;95609;-73
2023/05/01 03:14:26;;;;;;;15.60;8.30;;;;;;;0.39;69.39;97661.66;108409;1252;95719;-73
2023/05/01 03:16:53;;;;;;;12.10;8.20;;;;;;;0.36;69.44;97660.35;108229;1253;102776;-74
2023/05/01 03:19:20;;;;;;;14.10;7.80;;;;;;;0.34;69.44;97659.09;108408;1253;95732;-73
2023/05/01 03:21:46;;;;;;;12.70;7.40;;;;;;;0.31;69.37;97660.48;108752;1252;96559;-73
2023/05/01 03:24:13;;;;;;;11.30;7.20;;;;;;;0.26;69.42;97658.46;108763;1252;95668;-73
2023/05/01 03:26:40;;;;;;;15.30;8.50;;;;;;;0.24;69.49;97654.92;108884;1252;95849;-73
2023/05/01 03:29:07;;;;;;;16.70;8.20;;;;;;;0.23;69.67;97654.95;108390;1254;101385;-73
2023/05/01 03:31:34;;;;;;;11.20;7.80;;;;;;;0.24;69.59;97652.11;108761;1252;95625;-73
2023/05/01 03:34:01;;;;;;;13.10;8.50;;;;;;;0.23;69.62;97651.29;108399;1253;96152;-75
2023/05/01 03:36:27;;;;;;;12.30;8.10;;;;;;;0.20;69.76;97648.59;108817;1253;95638;-73
2023/05/01 03:38:54;;;;;;;15.30;8.00;;;;;;;0.18;69.84;97647.66;108851;1252;95564;-74
2023/05/01 03:41:21;;;;;;;11.10;7.90;;;;;;;0.17;69.84;97644.08;108816;1253;95657;-74
2023/05/01 03:43:47;;;;;;;15.80;8.20;;;;;;;0.17;69.90;97646.66;108745;1253;95837;-73
2023/05/01 03:46:14;;;;;;;12.50;8.20;;;;;;;0.18;69.88;97645.17;108759;1253;96512;-73
2023/05/01 03:48:41;;;;;;;11.80;7.80;;;;;;;0.20;70.05;97642.02;108853;1252;95608;-73
2023/05/01 03:51:08;;;;;;;14.80;8.40;;;;;;;0.20;70.02;97637.94;108791;1253;96663;-74
2023/05/01 03:53:35;;;;;;;15.70;8.40;;;;;;;0.20;70.10;97641.65;108472;1252;96536;-74
2023/05/01 03:56:03;;;;;;;15.80;8.80;;;;;;;0.19;70.07;97643.67;108781;1252;96016;-73
2023/05/01 03:58:30;;;;;;;15.20;9.90;;;;;;;0.20;70.12;97640.59;108771;1253;103403;-73
2023/05/01 04:00:59;;;;;;;18.80;11.20;;;;;;;0.21;70.19;97640.13;108767;1252;95764;-73
2023/05/01 04:03:27;;;;;;;14.70;10.40;;;;;;;0.22;70.16;97633.72;108775;1252;99039;-73
2023/05/01 04:05:54;;;;;;;19.60;12.20;;;;;;;0.22;70.20;97636.83;108808;1252;95553;-73
2023/05/01 04:08:20;;;;;;;14.90;10.40;;;;;;;0.24;70.27;97637.17;108807;1252;95946;-73
2023/05/01 04:10:47;;;;;;;20.00;12.10;;;;;;;0.27;70.48;97638.17;108813;1253;95751;-73
2023/05/01 04:13:14;;;;;;;18.80;13.30;;;;;;;0.29;70.51;97635.80;108801;1252;95958;-73
2023/05/01 04:15:45;;;;;;;30.10;18.10;;;;;;;0.32;70.45;97637.11;108783;1253;95891;-73
2023/05/01 04:18:12;;;;;;;31.20;16.90;;;;;;;0.35;70.59;97639.30;108752;1252;95739;-73
2023/05/01 04:20:39;;;;;;;37.30;16.50;;;;;;;0.39;70.66;97640.45;108837;1252;95938;-73
2023/05/01 04:23:06;;;;;;;37.70;17.30;;;;;;;0.43;70.67;97642.56;108785;1253;95619;-73
2023/05/01 04:25:33;;;;;;;37.00;17.00;;;;;;;0.47;70.77;97647.29;108424;1253;96296;-73
2023/05/01 04:27:59;;;;;;;29.50;15.40;;;;;;;0.49;70.85;97648.84;108745;1252;95651;-73
2023/05/01 04:30:26;;;;;;;23.60;12.60;;;;;;;0.55;70.83;97651.30;108851;1253;95575;-73
2023/05/01 04:32:52;;;;;;;21.90;11.60;;;;;;;0.61;70.77;97652.54;108428;1254;103407;-74
2023/05/01 04:35:19;;;;;;;18.90;10.80;;;;;;;0.64;70.82;97653.45;108816;1252;95621;-73
2023/05/01 04:37:46;;;;;;;17.50;10.20;;;;;;;0.65;70.87;97649.80;108737;1253;95602;-73
2023/05/01 04:40:13;;;;;;;22.90;10.60;;;;;;;0.67;70.88;97646.43;108538;1256;96610;-73
2023/05/01 04:42:40;;;;;;;15.50;9.00;;;;;;;0.68;71.07;97642.50;108541;1252;95698;-73
2023/05/01 04:45:06;;;;;;;16.60;9.10;;;;;;;0.72;71.13;97641.58;108814;1253;101307;-73
2023/05/01 04:47:33;;;;;;;15.70;9.20;;;;;;;0.75;71.19;97639.89;108335;1252;95774;-73
2023/05/01 04:50:00;;;;;;;19.80;11.60;;;;;;;0.78;71.13;97632.34;108800;1254;95956;-74
2023/05/01 04:52:27;;;;;;;19.90;10.70;;;;;;;0.81;71.17;97630.06;108583;1252;96063;-73
2023/05/01 04:54:53;;;;;;;18.00;9.90;;;;;;;0.86;71.13;97631.91;108780;1253;95625;-74
2023/05/01 04:57:20;;;;;;;16.30;8.90;;;;;;;0.92;71.20;97628.70;108840;1253;95645;-73
2023/05/01 04:59:47;;;;;;;13.50;9.00;;;;;;;1.00;71.25;97625.00;108767;1252;95698;-75
2023/05/01 05:02:13;;;;;;;15.20;9.10;;;;;;;1.08;71.40;97621.78;108504;1252;95687;-73
2023/05/01 05:04:40;;;;;;;22.50;13.50;;;;;;;1.13;71.40;97618.85;108781;1253;95641;-74
2023/05/01 05:07:08;;;;;;;28.00;14.50;;;;;;;1.16;71.50;97618.89;108784;1252;95914;-74
2023/05/01 05:09:35;;;;;;;25.00;14.00;;;;;;;1.19;71.57;97613.70;108774;1252;95804;-73
2023/05/01 05:12:03;;;;;;;22.80;13.10;;;;;;;1.25;71.60;97615.39;108792;1253;95582;-73
2023/05/01 05:14:30;;;;;;;18.70;11.40;;;;;;;1.30;71.59;97609.05;108764;1252;96012;-72
2023/05/01 05:16:57;;;;;;;15.10;9.30;;;;;;;1.35;71.62;97608.20;108794;1253;96491;-73
2023/05/01 05:19:23;;;;;;;14.90;9.10;;;;;;;1.40;71.59;97606.25;108843;1253;95929;-74
2023/05/01 05:21:50;;;;;;;16.60;9.30;;;;;;;1.47;71.63;97604.71;108754;1252;95538;-73
2023/05/01 05:24:17;;;;;;;15.30;9.10;;;;;;;1.55;71.65;97605.50;108832;1252;95754;-73
2023/05/01 05:26:44;;;;;;;16.00;8.40;;;;;;;1.63;71.61;97605.75;108835;1253;96008;-73
2023/05/01 05:29:11;;;;;;;14.60;7.80;;;;;;;1.70;71.62;97602.76;108773;1253;96077;-73
2023/05/01 05:31:37;;;;;;;12.20;6.70;;;;;;;1.79;71.40;97603.11;108423;1253;96813;-74
2023/05/01 05:34:04;;;;;;;11.80;6.40;;;;;;;1.89;71.26;97603.91;108737;1253;96019;-72
2023/05/01 05:36:31;;;;;;;9.20;5.50;;;;;;;1.99;71.09;97604.57;108786;1252;95968;-73
2023/05/01 05:38:59;;;;;;;10.80;6.30;;;;;;;2.09;71.02;97607.45;108750;1253;95665;-73
2023/05/01 05:41:26;;;;;;;13.50;6.80;;;;;;;2.18;70.95;97608.29;108723;1252;95648;-73
2023/05/01 05:43:53;;;;;;;13.50;6.80;;;;;;;2.27;70.89;97607.86;108803;1252;96607;-72
2023/05/01 05:46:20;;;;;;;16.60;7.80;;;;;;;2.34;70.90;97607.89;108797;1253;95642;-73
2023/05/01 05:48:46;;;;;;;15.10;7.50;;;;;;;2.44;70.84;97607.16;108830;1253;95567;-72
2023/05/01 05:51:13;;;;;;;17.30;7.30;;;;;;;2.54;70.98;97611.36;108771;1252;95940;-72
2023/05/01 05:53:40;;;;;;;22.30;8.80;;;;;;;2.63;71.24;97613.08;108764;1252;95576;-73
2023/05/01 05:56:07;;;;;;;15.50;8.20;;;;;;;2.73;71.45;97616.17;108791;1252;95857;-73
2023/05/01 05:58:33;;;;;;;14.90;7.90;;;;;;;2.83;71.77;97614.55;108794;1254;95891;-75
2023/05/01 06:01:00;;;;;;;13.70;7.90;;;;;;;2.94;71.79;97613.83;108811;1252;95610;-75
2023/05/01 06:03:27;;;;;;;18.60;8.10;;;;;;;3.03;71.64;97611.94;108811;1253;96389;-74
2023/05/01 06:05:54;;;;;;;14.50;8.00;;;;;;;3.13;71.53;97610.00;108450;1253;96013;-74
2023/05/01 06:08:21;;;;;;;16.30;8.20;;;;;;;3.24;71.55;97608.51;108439;1258;95741;-74
2023/05/01 06:10:48;;;;;;;14.60;7.80;;;;;;;3.36;71.51;97607.65;108790;1253;95858;-75
2023/05/01 06:13:15;;;;;;;15.50;8.00;;;;;;;3.46;71.53;97604.56;108720;1253;96025;-74
2023/05/01 06:15:42;;;;;;;14.50;8.10;;;;;;;3.57;71.52;97597.84;108791;1252;95995;-74
2023/05/01 06:18:09;;;;;;;13.60;8.00;;;;;;;3.73;71.45;97601.32;108799;1254;95604;-75
2023/05/01 06:20:36;;;;;;;14.30;7.60;;;;;;;3.87;71.58;97600.71;108478;1253;95727;-74
2023/05/01 06:23:02;;;;;;;12.90;7.90;;;;;;;4.02;71.71;97596.23;108837;1253;95598;-74
2023/05/01 06:25:29;;;;;;;14.50;7.20;;;;;;;4.18;71.79;97592.39;108772;1253;96564;-74
2023/05/01 06:27:56;;;;;;;14.40;7.50;;;;;;;4.34;72.03;97590.61;108462;1253;96080;-74
2023/05/01 06:30:23;;;;;;;13.30;7.30;;;;;;;4.51;71.46;97594.26;108883;1253;95717;-73
2023/05/01 06:32:49;;;;;;;12.50;7.90;;;;;;;4.63;71.04;97593.58;108385;1252;95717;-75
2023/05/01 06:35:16;;;;;;;14.40;7.00;;;;;;;4.77;70.98;97588.90;108751;1253;95641;-74
2023/05/01 06:37:43;;;;;;;13.50;7.60;;;;;;;4.89;70.60;97587.67;108849;1253;95536;-73
2023/05/01 06:40:11;;;;;;;17.00;7.50;;;;;;;5.01;70.30;97582.45;108806;1254;103673;-73
2023/05/01 06:42:39;;;;;;;14.70;6.70;;;;;;;5.13;70.00;97581.45;108802;1253;101385;-73
2023/05/01 06:45:07;;;;;;;18.60;7.30;;;;;;;5.25;69.71;97580.33;108358;1253;100080;-74
2023/05/01 06:47:34;;;;;;;14.00;7.00;;;;;;;5.40;69.45;97578.52;108313;1253;96424;-73
2023/05/01 06:50:01;;;;;;;11.30;7.00;;;;;;;5.55;69.03;97576.83;108795;1254;96461;-73
2023/05/01 06:52:28;;;;;;;12.70;5.40;;;;;;;5.70;68.80;97575.80;108816;1252;95846;-73
2023/05/01 06:54:55;;;;;;;12.70;6.10;;;;;;;5.84;68.25;97576.66;108428;1254;96035;-73
2023/05/01 06:57:21;;;;;;;12.10;4.80;;;;;;;5.97;67.72;97574.02;108362;1252;96085;-74
2023/05/01 06:59:48;;;;;;;11.40;4.90;;;;;;;6.15;67.20;97572.48;108841;1253;95690;-72
2023/05/01 07:02:15;;;;;;;10.10;5.10;;;;;;;6.36;66.91;97569.13;108851;1254;95688;-75
2023/05/01 07:04:43;;;;;;;11.70;4.90;;;;;;;6.53;66.74;97565.90;108839;1252;101291;-74
2023/05/01 07:07:10;;;;;;;11.30;5.20;;;;;;;6.69;66.50;97564.46;108736;1252;100224;-75
2023/05/01 07:09:37;;;;;;;13.60;5.10;;;;;;;6.86;66.41;97561.33;108814;1256;95586;-73
2023/05/01 07:12:05;;;;;;;11.30;4.90;;;;;;;7.02;65.91;97560.61;108798;1253;95643;-73
2023/05/01 07:14:34;;;;;;;10.40;4.40;;;;;;;7.18;65.33;97560.96;108838;1252;103529;-72
2023/05/01 07:17:01;;;;;;;9.60;4.70;;;;;;;7.34;64.87;97557.04;108801;1254;101249;-73
2023/05/01 07:19:28;;;;;;;7.90;4.00;;;;;;;7.52;64.24;97558.41;108795;1252;95987;-73
2023/05/01 07:21:55;;;;;;;10.20;4.00;;;;;;;7.71;64.15;97559.42;108805;1253;95599;-72
2023/05/01 07:24:22;;;;;;;6.80;4.10;;;;;;;7.90;63.81;97556.16;108652;1255;95680;-73
2023/05/01 07:26:48;;;;;;;10.20;3.70;;;;;;;8.09;63.38;97553.77;108839;1253;95579;-74
2023/05/01 07:29:15;;;;;;;6.00;3.40;;;;;;;8.29;63.03;97557.79;108895;1253;96066;-73
2023/05/01 07:31:42;;;;;;;7.10;3.10;;;;;;;8.58;62.10;97562.27;108584;1253;95631;-73
2023/05/01 07:34:09;;;;;;;6.90;3.00;;;;;;;8.90;61.64;97554.19;108810;1253;95643;-73
2023/05/01 07:36:36;;;;;;;4.90;2.60;;;;;;;9.26;61.11;97548.39;108819;1252;95672;-72
2023/05/01 07:39:03;;;;;;;12.50;3.70;;;;;;;9.70;60.89;97545.88;108882;1253;95878;-73
2023/05/01 07:41:30;;;;;;;6.80;3.30;;;;;;;10.25;60.15;97546.85;108758;1253;95602;-73
2023/05/01 07:44:00;;;;;;;11.20;3.30;;;;;;;10.82;59.49;97543.21;108726;1253;95601;-73
2023/05/01 07:46:27;;;;;;;6.50;3.00;;;;;;;11.44;58.29;97538.71;108834;1252;96471;-73
2023/05/01 07:48:54;;;;;;;7.40;3.10;;;;;;;11.96;57.33;97539.15;108476;1253;95937;-75
2023/05/01 07:51:21;;;;;;;7.40;3.20;;;;;;;12.49;56.45;97539.81;108824;1254;96430;-73
2023/05/01 07:53:48;;;;;;;5.80;2.90;;;;;;;13.01;55.67;97541.10;108807;1254;95621;-74
2023/05/01 07:56:15;;;;;;;7.10;3.00;;;;;;;13.50;54.59;97535.13;108793;1253;95808;-74
2023/05/01 07:58:42;;;;;;;7.10;2.70;;;;;;;13.99;53.66;97531.30;108918;1252;95628;-74
2023/05/01 08:01:09;;;;;;;7.30;2.40;;;;;;;14.46;53.19;97531.88;108898;1252;101201;-77
2023/05/01 08:03:36;;;;;;;7.10;3.00;;;;;;;14.91;52.20;97536.84;108791;1252;96013;-74
2023/05/01 08:06:03;;;;;;;6.50;3.00;;;;;;;15.31;51.25;97536.98;108275;1252;95964;-76
2023/05/01 08:08:30;;;;;;;6.80;2.60;;;;;;;15.76;50.86;97535.11;108411;1253;96553;-76
2023/05/01 08:10:57;;;;;;;8.60;2.80;;;;;;;16.17;50.01;97535.88;108506;1253;95755;-74
2023/05/01 08:13:24;;;;;;;6.20;2.90;;;;;;;16.53;49.44;97529.18;108832;1253;95678;-73
2023/05/01 08:15:51;;;;;;;7.00;3.10;;;;;;;16.99;49.33;97533.34;108774;1253;95553;-74
2023/05/01 08:18:19;;;;;;;23.90;8.20;;;;;;;17.40;48.38;97526.04;108833;1253;95554;-74
2023/05/01 08:20:47;;;;;;;7.40;3.40;;;;;;;17.84;47.20;97523.40;108846;1254;103661;-73
2023/05/01 08:23:15;;;;;;;6.40;2.60;;;;;;;18.24;46.33;97524.40;108879;1252;101251;-74
2023/05/01 08:25:45;;;;;;;4.80;2.50;;;;;;;18.41;46.28;97526.02;108421;1254;99094;-74
2023/05/01 08:28:14;;;;;;;6.50;2.70;;;;;;;18.30;43.86;97526.98;108832;1253;95803;-75
2023/05/01 08:30:41;;;;;;;7.00;3.20;;;;;;;18.51;43.81;97524.91;108675;1253;95827;-75
2023/05/01 08:33:08;;;;;;;5.20;3.00;;;;;;;18.97;43.34;97521.02;108290;1260;103757;-77
2023/05/01 08:35:35;;;;;;;4.70;2.70;;;;;;;19.39;42.40;97520.14;108812;1253;95824;-77
2023/05/01 08:38:02;;;;;;;6.80;2.90;;;;;;;19.84;42.18;97516.17;108756;1253;96499;-75
2023/05/01 08:40:32;;;;;;;9.20;3.60;;;;;;;20.21;41.36;97519.05;108528;1253;95777;-74
2023/05/01 08:43:02;;;;;;;5.40;3.20;;;;;;;20.49;40.39;97516.87;108847;1252;96852;-74
2023/05/01 08:45:35;;;;;;;4.80;2.60;;;;;;;20.81;39.80;97513.29;108795;1252;103592;-76
2023/05/01 08:48:06;;;;;;;5.90;2.60;;;;;;;21.23;39.62;97510.98;108833;1254;101360;-74
2023/05/01 08:50:36;;;;;;;5.10;2.60;;;;;;;21.55;38.50;97508.05;108783;1253;99893;-74
2023/05/01 08:53:04;;;;;;;8.60;2.80;;;;;;;21.86;37.83;97509.38;108823;1252;95999;-73
2023/05/01 08:55:31;;;;;;;5.10;2.40;;;;;;;22.06;37.49;97503.54;108879;1252;95716;-75
2023/05/01 08:57:59;;;;;;;8.70;2.90;;;;;;;22.36;36.88;97504.59;108499;1253;103540;-72
2023/05/01 09:00:26;;;;;;;7.40;2.90;;;;;;;22.54;36.55;97501.00;108830;1252;95664;-73
2023/05/01 09:02:54;;;;;;;5.70;2.60;;;;;;;22.77;36.21;97496.45;108811;1252;99480;-76
2023/05/01 09:05:21;;;;;;;4.20;2.40;;;;;;;22.89;35.44;97494.05;108613;1253;95636;-73
2023/05/01 09:07:48;;;;;;;3.50;2.30;;;;;;;22.90;35.32;97494.30;108449;1253;95935;-73
2023/05/01 09:10:17;;;;;;;4.20;2.60;;;;;;;23.11;34.69;97493.56;108848;1252;95585;-73
2023/05/01 09:12:48;;;;;;;5.20;2.70;;;;;;;23.18;33.78;97488.77;108862;1252;101208;-73
2023/05/01 09:15:15;;;;;;;5.30;2.70;;;;;;;23.18;33.96;97485.25;108636;1253;98952;-73
2023/05/01 09:17:43;;;;;;;2.70;1.90;;;;;;;23.31;33.49;97478.73;108288;1253;95695;-75
2023/05/01 09:20:11;;;;;;;6.00;3.10;;;;;;;23.51;33.07;97475.06;108860;1253;95714;-73
2023/05/01 09:22:38;;;;;;;6.60;2.60;;;;;;;23.55;32.79;97470.94;108891;1252;103550;-73
2023/05/01 09:25:05;;;;;;;15.00;4.50;;;;;;;23.61;32.46;97464.48;108716;1254;95653;-73
2023/05/01 09:27:36;;;;;;;5.50;2.40;;;;;;;23.72;32.26;97464.41;108625;1253;221087;-75
2023/05/01 09:30:05;;;;;;;10.20;3.40;;;;;;;23.76;32.14;97464.08;108760;1253;95584;-76
2023/05/01 09:32:32;;;;;;;3.60;2.20;;;;;;;23.87;32.03;97456.88;108499;1253;95784;-75
2023/05/01 09:35:13;;;;;;;5.50;2.80;;;;;;;23.99;31.62;97459.38;108571;1253;95674;-73
2023/05/01 09:37:40;;;;;;;5.30;3.40;;;;;;;24.07;31.23;97453.90;108788;1253;101560;-73
2023/05/01 09:40:13;;;;;;;4.40;2.10;;;;;;;24.14;30.90;97451.83;108537;1253;95685;-75
2023/05/01 09:42:48;;;;;;;3.70;1.80;;;;;;;24.15;30.01;97449.89;108846;1256;95824;-72
2023/05/01 09:45:17;;;;;;;5.40;1.90;;;;;;;24.07;29.77;97448.05;108467;1252;96028;-76
2023/05/01 09:47:46;;;;;;;3.90;1.80;;;;;;;24.00;29.73;97436.36;108355;1253;103733;-74
2023/05/01 09:50:32;;;;;;;2.80;1.60;;;;;;;23.96;29.92;97433.59;108775;1253;101150;-74
2023/05/01 09:53:01;;;;;;;3.70;1.90;;;;;;;23.89;29.12;97429.94;108769;1254;99350;-73
2023/05/01 09:55:28;;;;;;;5.10;1.90;;;;;;;23.84;28.93;97424.39;108417;1253;95837;-73
2023/05/01 09:57:55;;;;;;;4.90;2.10;;;;;;;23.92;28.83;97422.02;108832;1253;96229;-72
2023/05/01 10:00:21;;;;;;;5.60;2.20;;;;;;;24.08;29.49;97420.30;108844;1253;95646;-73
2023/05/01 10:02:49;;;;;;;4.30;2.20;;;;;;;24.22;29.00;97421.12;108813;1254;95641;-75
2023/05/01 10:05:17;;;;;;;2.70;1.90;;;;;;;24.24;28.60;97419.55;108784;1253;96047;-73
2023/05/01 10:07:57;;;;;;;4.20;1.80;;;;;;;24.22;28.80;97415.66;108825;1252;96574;-73
2023/05/01 10:10:24;;;;;;;4.50;2.40;;;;;;;24.32;29.40;97412.15;108377;1253;95748;-73
2023/05/01 10:12:51;;;;;;;7.80;2.40;;;;;;;24.57;28.72;97411.25;108821;1253;95647;-73
2023/05/01 10:15:19;;;;;;;3.90;2.00;;;;;;;24.75;27.87;97408.95;108807;1254;95729;-76
2023/05/01 10:17:50;;;;;;;4.80;2.00;;;;;;;24.77;28.69;97410.13;108279;1254;95760;-73
2023/05/01 10:20:17;;;;;;;6.90;2.50;;;;;;;24.85;28.67;97405.59;108816;1254;95623;-75
2023/05/01 10:22:45;;;;;;;2.50;2.00;;;;;;;24.93;28.17;97409.38;108677;1253;95789;-73
2023/05/01 10:25:12;;;;;;;3.50;2.20;;;;;;;25.07;28.04;97404.33;108474;1254;95737;-74
2023/05/01 10:27:41;;;;;;;6.00;2.20;;;;;;;25.20;27.36;97392.75;108827;1254;95921;-73
2023/05/01 10:30:09;;;;;;;3.00;2.10;;;;;;;25.10;27.59;97384.72;108775;1252;100032;-74
2023/05/01 10:32:38;;;;;;;4.50;2.00;;;;;;;24.96;27.03;97387.48;108336;1253;95783;-73
2023/05/01 10:35:19;;;;;;;5.70;2.20;;;;;;;24.91;27.62;97382.02;108756;1254;95919;-73
2023/05/01 10:37:48;;;;;;;3.40;1.90;;;;;;;25.07;27.31;97376.91;108742;1253;103529;-73
2023/05/01 10:40:40;;;;;;;2.90;2.00;;;;;;;25.42;27.23;97373.41;108798;1254;101418;-73
2023/05/01 10:43:28;;;;;;;3.30;1.90;;;;;;;25.68;26.99;97369.79;108809;1253;99969;-73
2023/05/01 10:46:08;;;;;;;4.20;2.10;;;;;;;25.52;26.69;97368.85;108788;1254;95803;-75
2023/05/01 10:48:37;;;;;;;4.10;1.90;;;;;;;25.48;26.96;97365.48;108840;1256;95767;-73
2023/05/01 10:51:16;;;;;;;4.30;2.00;;;;;;;25.60;26.66;97365.54;108818;1254;103653;-73
2023/05/01 10:53:47;;;;;;;3.00;2.00;;;;;;;25.50;26.55;97359.60;108890;1254;101141;-73
2023/05/01 10:56:37;;;;;;;3.40;2.00;;;;;;;25.51;26.77;97362.39;108861;1253;99605;-73
2023/05/01 10:59:05;;;;;;;6.30;2.20;;;;;;;25.72;26.20;97358.83;108136;1260;95798;-74
2023/05/01 11:01:41;;;;;;;4.10;2.10;;;;;;;25.81;26.44;97357.08;108192;1261;95659;-74
2023/05/01 11:04:21;;;;;;;2.90;2.10;;;;;;;25.91;27.13;97359.55;108169;1260;103597;-76
2023/05/01 11:07:03;;;;;;;5.60;2.30;;;;;;;26.02;26.39;97353.61;107980;1260;100387;-75
2023/05/01 11:09:38;;;;;;;;;;;;;;;26.10;26.12;97347.38;108170;1261;99548;-74
2023/05/01 11:12:06;;;;;;;3.30;1.90;;;;;;;26.19;26.78;97346.90;108143;1260;95686;-78
2023/05/01 11:14:51;;;;;;;5.00;2.20;;;;;;;26.30;25.73;97345.42;107967;1261;95592;-80
2023/05/01 11:17:40;;;;;;;4.10;1.90;;;;;;;26.06;25.16;97341.61;107949;1260;103792;-77
2023/05/01 11:20:07;;;;;;;4.60;2.00;;;;;;;25.76;25.48;97341.70;108160;1264;101325;-79
2023/05/01 11:22:39;;;;;;;3.80;2.00;;;;;;;25.38;25.59;97339.72;108163;1261;100023;-79
2023/05/01 11:25:19;;;;;;;2.90;1.90;;;;;;;25.52;25.69;97336.07;108144;1261;95659;-80
2023/05/01 11:27:55;;;;;;;6.40;2.50;;;;;;;25.59;25.94;97333.88;108166;1260;97087;-81
2023/05/01 11:30:21;;;;;;;4.60;2.70;;;;;;;25.73;25.69;97326.23;108171;1261;103470;-79